Time;durP1;ratioP1;P1;durP2;ratioP2;P2;SDS_P1;SDS_P2;PMS_P1;PMS_P2;Temp;Humidity;BMP_temperature;BMP_pressure;BME280_temperature;BME280_humidity;BME280_pressure;Samples;Min_cycle;Max_cycle;Signal;HPM_P1;HPM_P2
2023/03/28 00:02:15;;;;;;;3.00;1.50;;;2.60;99.90;;;;;;5111054;28;20231;-83
2023/03/28 00:04:44;;;;;;;1.25;1.15;;;2.60;99.90;;;;;;5111049;28;20211;-83
2023/03/28 00:07:13;;;;;;;1.30;1.15;;;2.60;99.90;;;;;;5110311;28;20223;-83
2023/03/28 00:09:42;;;;;;;1.83;1.40;;;2.60;99.90;;;;;;5110306;28;20227;-83
2023/03/28 00:12:12;;;;;;;1.17;1.08;;;2.60;99.90;;;;;;5110529;28;20219;-83
2023/03/28 00:14:41;;;;;;;1.65;1.55;;;2.60;99.90;;;;;;5110134;28;20288;-84
2023/03/28 00:17:09;;;;;;;1.50;1.40;;;2.60;99.90;;;;;;5110206;28;20303;-84
2023/03/28 00:19:39;;;;;;;0.73;0.73;;;2.60;99.90;;;;;;5109333;28;20207;-84
2023/03/28 00:22:10;;;;;;;1.38;1.27;;;2.50;99.90;;;;;;5110723;28;20228;-83
2023/03/28 00:24:38;;;;;;;1.52;1.40;;;2.50;99.90;;;;;;5110240;28;20207;-83
2023/03/28 00:27:07;;;;;;;1.52;1.25;;;2.50;99.90;;;;;;5089861;28;20307;-83
2023/03/28 00:29:37;;;;;;;2.67;1.63;;;2.50;99.90;;;;;;5097196;28;20215;-82
2023/03/28 00:32:06;;;;;;;1.30;1.20;;;2.50;99.90;;;;;;5111130;28;20250;-84
2023/03/28 00:34:34;;;;;;;1.88;1.77;;;2.50;99.90;;;;;;5110739;28;20256;-84
2023/03/28 00:37:03;;;;;;;2.10;1.88;;;2.50;99.90;;;;;;5110285;28;20211;-84
2023/03/28 00:39:33;;;;;;;1.58;1.25;;;2.50;99.90;;;;;;5111021;28;20208;-83
2023/03/28 00:42:02;;;;;;;3.00;1.48;;;2.50;99.90;;;;;;5110577;28;20228;-84
2023/03/28 00:44:47;;;;;;;1.50;1.40;;;2.50;99.90;;;;;;5110678;28;20261;-83
2023/03/28 00:47:46;;;;;;;1.30;1.20;;;2.40;99.90;;;;;;5110420;28;20203;-82
2023/03/28 00:50:21;;;;;;;1.75;1.23;;;2.40;99.90;;;;;;5110334;28;20314;-83
2023/03/28 00:52:54;;;;;;;1.90;1.50;;;2.40;99.90;;;;;;5110902;28;20263;-82
2023/03/28 00:55:27;;;;;;;1.00;1.00;;;2.50;99.90;;;;;;5108891;28;20196;-84
2023/03/28 00:57:55;;;;;;;1.27;1.20;;;2.40;99.90;;;;;;5109425;28;20208;-84
2023/03/28 01:00:26;;;;;;;1.08;1.08;;;2.40;99.90;;;;;;5110629;28;20228;-84
2023/03/28 01:02:57;;;;;;;1.20;1.10;;;2.40;99.90;;;;;;5110596;28;20200;-84
2023/03/28 01:05:30;;;;;;;2.13;1.38;;;2.40;99.90;;;;;;5110365;28;20210;-82
2023/03/28 01:08:04;;;;;;;1.13;1.02;;;2.40;99.90;;;;;;5110144;28;20211;-82
2023/03/28 01:10:33;;;;;;;1.92;1.27;;;2.40;99.90;;;;;;5110064;28;20291;-82
2023/03/28 01:13:03;;;;;;;1.15;1.15;;;2.40;99.90;;;;;;5111543;28;20234;-82
2023/03/28 01:15:33;;;;;;;0.98;0.98;;;2.40;99.90;;;;;;5112097;28;20200;-83
2023/03/28 01:18:09;;;;;;;1.15;1.10;;;2.40;99.90;;;;;;5112034;28;20216;-83
2023/03/28 01:21:18;;;;;;;2.15;1.52;;;2.30;99.90;;;;;;5112667;28;20234;-83
2023/03/28 01:24:15;;;;;;;1.40;1.30;;;2.40;99.90;;;;;;5063549;28;20299;-83
2023/03/28 01:26:54;;;;;;;1.30;1.20;;;2.30;99.90;;;;;;5076472;28;20283;-83
2023/03/28 01:30:03;;;;;;;1.25;1.20;;;2.30;99.90;;;;;;5095340;28;20257;-82
2023/03/28 01:33:04;;;;;;;1.47;1.23;;;2.30;99.90;;;;;;5096000;28;20205;-83
2023/03/28 01:36:03;;;;;;;1.73;0.82;;;2.30;99.90;;;;;;5108579;28;20207;-83
2023/03/28 01:38:39;;;;;;;0.82;0.82;;;2.30;99.90;;;;;;5115825;28;20219;-82
2023/03/28 01:41:14;;;;;;;1.10;1.10;;;2.30;99.90;;;;;;5116006;28;20222;-83
2023/03/28 01:43:51;;;;;;;1.25;1.13;;;2.20;99.90;;;;;;5115972;28;20276;-83
2023/03/28 01:46:27;;;;;;;1.13;0.82;;;2.20;99.90;;;;;;5113893;28;20207;-83
2023/03/28 01:49:03;;;;;;;0.73;0.73;;;2.30;99.90;;;;;;5115049;28;20219;-83
2023/03/28 01:51:47;;;;;;;2.08;1.38;;;2.20;99.90;;;;;;5115771;28;20258;-83
2023/03/28 01:54:29;;;;;;;1.63;1.45;;;2.20;99.90;;;;;;5115683;28;20227;-83
2023/03/28 01:57:03;;;;;;;1.60;1.13;;;2.20;99.90;;;;;;5114905;28;20231;-83
2023/03/28 01:59:37;;;;;;;0.70;0.70;;;2.30;99.90;;;;;;5115858;28;20253;-83
2023/03/28 02:02:12;;;;;;;1.88;1.45;;;2.20;99.90;;;;;;5116290;28;20228;-83
2023/03/28 02:04:44;;;;;;;2.97;1.00;;;2.20;99.90;;;;;;5115162;28;20203;-82
2023/03/28 02:07:14;;;;;;;1.50;1.40;;;2.20;99.90;;;;;;5115380;28;20264;-83
2023/03/28 02:09:47;;;;;;;0.95;0.95;;;2.20;99.90;;;;;;5114370;28;20283;-82
2023/03/28 02:12:19;;;;;;;2.30;1.48;;;2.20;99.90;;;;;;5115534;28;20230;-82
2023/03/28 02:14:51;;;;;;;1.25;1.25;;;2.20;99.90;;;;;;5115083;28;20272;-82
2023/03/28 02:17:22;;;;;;;1.20;1.08;;;2.20;99.90;;;;;;5115387;28;20207;-83
2023/03/28 02:19:57;;;;;;;1.17;1.08;;;2.20;99.90;;;;;;5115403;28;20206;-82
2023/03/28 02:22:31;;;;;;;1.05;1.05;;;2.10;99.90;;;;;;5115445;28;20276;-83
2023/03/28 02:25:01;;;;;;;1.42;1.25;;;2.20;99.90;;;;;;5111992;28;20255;-82
2023/03/28 02:27:30;;;;;;;1.40;1.30;;;2.10;99.90;;;;;;5114510;28;20210;-83
2023/03/28 02:29:59;;;;;;;1.58;1.48;;;2.20;99.90;;;;;;5114081;28;20248;-83
2023/03/28 02:32:27;;;;;;;1.50;1.40;;;2.20;99.90;;;;;;5115204;28;20200;-83
2023/03/28 02:34:56;;;;;;;2.00;1.05;;;2.10;99.90;;;;;;5114905;28;20204;-82
2023/03/28 02:37:36;;;;;;;2.60;1.60;;;2.20;99.90;;;;;;5114097;28;20264;-83
2023/03/28 02:40:30;;;;;;;1.17;1.15;;;2.10;99.90;;;;;;5114681;28;20223;-82
2023/03/28 02:43:17;;;;;;;0.80;0.80;;;2.10;99.90;;;;;;5114295;28;20203;-82
2023/03/28 02:46:12;;;;;;;1.33;1.13;;;2.10;99.90;;;;;;5115112;28;20203;-82
2023/03/28 02:49:00;;;;;;;2.47;1.55;;;2.10;99.90;;;;;;5123501;28;20265;-83
2023/03/28 02:51:33;;;;;;;1.38;0.80;;;2.10;99.90;;;;;;5114684;28;20250;-82
2023/03/28 02:54:13;;;;;;;1.70;1.33;;;2.10;99.90;;;;;;5114713;28;20299;-83
2023/03/28 02:56:51;;;;;;;0.88;0.88;;;2.00;99.90;;;;;;5096279;28;20200;-83
2023/03/28 02:59:25;;;;;;;4.95;1.02;;;2.10;99.90;;;;;;5109751;28;20203;-83
2023/03/28 03:01:54;;;;;;;2.65;1.38;;;2.10;99.90;;;;;;5114714;28;20254;-82
2023/03/28 03:04:22;;;;;;;0.80;0.80;;;2.10;99.90;;;;;;5114036;28;20206;-82
2023/03/28 03:06:51;;;;;;;1.50;1.40;;;2.10;99.90;;;;;;5114182;28;20299;-82
2023/03/28 03:09:21;;;;;;;0.93;0.77;;;2.10;99.90;;;;;;5113886;28;20227;-82
2023/03/28 03:11:51;;;;;;;0.80;0.80;;;2.10;99.90;;;;;;5114605;28;20230;-82
2023/03/28 03:14:20;;;;;;;0.90;0.80;;;2.10;99.90;;;;;;5113701;28;20235;-82
2023/03/28 03:16:50;;;;;;;1.02;1.02;;;2.10;99.90;;;;;;5113790;28;20203;-82
2023/03/28 03:19:19;;;;;;;0.98;0.95;;;2.10;99.90;;;;;;5114021;28;20252;-83
2023/03/28 03:21:48;;;;;;;1.17;0.93;;;2.00;99.90;;;;;;5113887;28;20254;-82
2023/03/28 03:24:17;;;;;;;1.35;1.23;;;2.00;99.90;;;;;;5114082;28;20200;-82
2023/03/28 03:26:45;;;;;;;0.93;0.90;;;2.00;99.90;;;;;;5113344;28;20234;-82
2023/03/28 03:29:15;;;;;;;0.68;0.68;;;2.00;99.90;;;;;;5113794;28;20200;-82
2023/03/28 03:31:44;;;;;;;1.65;1.00;;;2.10;99.90;;;;;;5113411;28;20266;-82
2023/03/28 03:34:13;;;;;;;1.33;1.05;;;2.10;99.90;;;;;;5113484;28;20199;-83
2023/03/28 03:36:41;;;;;;;0.80;0.80;;;2.10;99.90;;;;;;5112890;28;20225;-83
2023/03/28 03:39:10;;;;;;;0.88;0.65;;;2.10;99.90;;;;;;5113436;28;20242;-82
2023/03/28 03:41:38;;;;;;;0.85;0.80;;;2.00;99.90;;;;;;5112924;28;20239;-83
2023/03/28 03:44:07;;;;;;;0.73;0.73;;;2.10;99.90;;;;;;5113705;28;20253;-83
2023/03/28 03:46:37;;;;;;;1.30;1.08;;;2.10;99.90;;;;;;5113695;28;20207;-83
2023/03/28 03:49:06;;;;;;;2.35;1.10;;;2.10;99.90;;;;;;5112582;28;20320;-83
2023/03/28 03:51:34;;;;;;;0.98;0.80;;;2.10;99.90;;;;;;5113129;28;20310;-82
2023/03/28 03:54:03;;;;;;;0.98;0.90;;;2.10;99.90;;;;;;5113810;28;20268;-83
2023/03/28 03:56:31;;;;;;;1.50;1.15;;;2.10;99.90;;;;;;5113133;28;20290;-82
2023/03/28 03:59:00;;;;;;;0.77;0.77;;;2.10;99.90;;;;;;5112308;28;20225;-82
2023/03/28 04:01:29;;;;;;;0.85;0.85;;;2.10;99.90;;;;;;5113357;28;20228;-85
2023/03/28 04:03:59;;;;;;;1.88;1.30;;;2.10;99.90;;;;;;5113136;28;20200;-85
2023/03/28 04:06:28;;;;;;;1.27;1.17;;;2.10;99.90;;;;;;5113142;28;20208;-85
2023/03/28 04:08:58;;;;;;;0.75;0.73;;;2.10;99.90;;;;;;5112717;28;20214;-85
2023/03/28 04:11:27;;;;;;;0.75;0.75;;;2.10;99.90;;;;;;5113074;28;20243;-82
2023/03/28 04:13:56;;;;;;;0.80;0.80;;;2.20;99.90;;;;;;5113134;28;20211;-82
2023/03/28 04:16:24;;;;;;;0.68;0.68;;;2.20;99.90;;;;;;5113279;28;20226;-82
2023/03/28 04:18:53;;;;;;;0.68;0.65;;;2.20;99.90;;;;;;5112502;28;20254;-83
2023/03/28 04:21:26;;;;;;;0.60;0.60;;;2.20;99.90;;;;;;5113198;28;20224;-83
2023/03/28 04:23:55;;;;;;;2.05;0.73;;;2.20;99.90;;;;;;5113127;28;20210;-83
2023/03/28 04:26:26;;;;;;;1.33;0.70;;;2.20;99.90;;;;;;5112260;28;20203;-82
2023/03/28 04:28:55;;;;;;;0.50;0.50;;;2.20;99.90;;;;;;5112870;28;20207;-83
2023/03/28 04:31:28;;;;;;;1.55;0.93;;;2.20;99.90;;;;;;5112099;28;20315;-83
2023/03/28 04:33:59;;;;;;;1.60;1.35;;;2.10;99.90;;;;;;5112755;28;20292;-83
2023/03/28 04:36:30;;;;;;;1.80;1.38;;;2.10;99.90;;;;;;5112814;28;20288;-83
2023/03/28 04:39:01;;;;;;;1.75;1.55;;;2.00;99.90;;;;;;5112522;28;20215;-82
2023/03/28 04:41:30;;;;;;;1.70;1.60;;;2.00;99.90;;;;;;5112379;28;20230;-82
2023/03/28 04:43:59;;;;;;;2.45;1.35;;;1.90;99.90;;;;;;5112995;28;20257;-82
2023/03/28 04:46:30;;;;;;;1.85;1.75;;;1.80;99.90;;;;;;5112264;28;20203;-83
2023/03/28 04:48:58;;;;;;;3.60;1.60;;;1.80;99.90;;;;;;5112645;28;20211;-83
2023/03/28 04:51:28;;;;;;;0.80;0.80;;;1.80;99.90;;;;;;5111993;28;20223;-83
2023/03/28 04:53:57;;;;;;;1.40;1.30;;;1.80;99.90;;;;;;5112909;28;20215;-82
2023/03/28 04:56:26;;;;;;;1.77;1.60;;;1.90;99.90;;;;;;5111725;28;20196;-83
2023/03/28 04:58:54;;;;;;;1.27;1.17;;;1.90;99.90;;;;;;5113052;28;20199;-85
2023/03/28 05:01:24;;;;;;;1.35;1.25;;;1.90;99.90;;;;;;5116697;28;20275;-83
2023/03/28 05:03:53;;;;;;;1.23;1.17;;;1.80;99.90;;;;;;5116876;28;20208;-83
2023/03/28 05:06:24;;;;;;;1.40;1.30;;;1.80;99.90;;;;;;5116622;28;20200;-83
2023/03/28 05:08:57;;;;;;;0.90;0.90;;;1.80;99.90;;;;;;5116245;28;20211;-83
2023/03/28 05:11:26;;;;;;;1.15;1.08;;;1.90;99.90;;;;;;5116538;28;20257;-82
2023/03/28 05:13:55;;;;;;;1.20;0.90;;;1.90;99.90;;;;;;5116183;28;20192;-83
2023/03/28 05:16:23;;;;;;;1.42;1.30;;;1.90;99.90;;;;;;5116350;28;20231;-83
2023/03/28 05:18:51;;;;;;;1.65;1.10;;;2.00;99.90;;;;;;5115969;28;20207;-82
2023/03/28 05:21:20;;;;;;;1.20;1.10;;;2.00;99.90;;;;;;5116228;28;20216;-82
2023/03/28 05:23:48;;;;;;;1.65;1.38;;;2.10;99.90;;;;;;5116353;28;20207;-82
2023/03/28 05:26:21;;;;;;;1.88;1.30;;;2.10;99.90;;;;;;5116190;28;20207;-83
2023/03/28 05:28:49;;;;;;;1.15;0.90;;;2.10;99.90;;;;;;5115803;28;20303;-83
2023/03/28 05:31:17;;;;;;;0.93;0.93;;;2.20;99.90;;;;;;5115686;28;20284;-82
2023/03/28 05:33:46;;;;;;;0.95;0.90;;;2.20;99.90;;;;;;5116179;28;20204;-82
2023/03/28 05:36:14;;;;;;;2.90;1.20;;;2.30;99.90;;;;;;5115800;28;20212;-82
2023/03/28 05:38:43;;;;;;;3.05;1.63;;;2.30;99.90;;;;;;5115772;28;20204;-83
2023/03/28 05:41:11;;;;;;;1.17;1.08;;;2.30;99.90;;;;;;5115602;28;20220;-83
2023/03/28 05:43:41;;;;;;;1.92;1.52;;;2.40;99.90;;;;;;5116187;28;20291;-83
2023/03/28 05:46:09;;;;;;;1.35;1.25;;;2.40;99.90;;;;;;5115637;28;20199;-86
2023/03/28 05:48:40;;;;;;;1.33;1.23;;;2.40;99.90;;;;;;5116653;28;20210;-83
2023/03/28 05:51:09;;;;;;;3.50;2.05;;;2.50;99.90;;;;;;5115870;28;20212;-83
2023/03/28 05:53:37;;;;;;;1.00;1.00;;;2.50;99.90;;;;;;5098326;28;20197;-83
2023/03/28 05:56:06;;;;;;;0.95;0.95;;;2.60;99.90;;;;;;5105407;28;20196;-83
2023/03/28 05:58:34;;;;;;;2.63;1.58;;;2.60;99.90;;;;;;5103832;28;20283;-83
2023/03/28 06:01:05;;;;;;;3.08;1.63;;;2.70;99.90;;;;;;5115294;28;20223;-83
2023/03/28 06:03:38;;;;;;;2.45;1.50;;;2.80;99.90;;;;;;5112687;28;20241;-83
2023/03/28 06:06:08;;;;;;;1.33;1.23;;;2.80;99.90;;;;;;5101001;28;20227;-83
2023/03/28 06:08:37;;;;;;;1.63;1.52;;;2.90;99.90;;;;;;5102640;28;20201;-83
2023/03/28 06:11:06;;;;;;;1.67;1.52;;;3.00;99.90;;;;;;5104599;28;20295;-84
2023/03/28 06:13:35;;;;;;;1.60;1.50;;;3.10;99.90;;;;;;5106507;28;20192;-83
2023/03/28 06:16:05;;;;;;;1.67;1.58;;;3.20;99.90;;;;;;5097857;28;20201;-83
2023/03/28 06:18:34;;;;;;;2.47;1.35;;;3.20;99.90;;;;;;5107022;28;20204;-83
2023/03/28 06:21:03;;;;;;;1.50;1.38;;;3.20;99.90;;;;;;5099965;28;20211;-83
2023/03/28 06:23:31;;;;;;;1.65;1.52;;;3.20;99.90;;;;;;5114703;28;20219;-84
2023/03/28 06:26:01;;;;;;;1.88;1.77;;;3.30;99.90;;;;;;5114586;28;20225;-84
2023/03/28 06:28:29;;;;;;;1.20;1.10;;;3.30;99.90;;;;;;5113819;28;20212;-84
2023/03/28 06:30:58;;;;;;;1.55;1.45;;;3.30;99.90;;;;;;5114890;28;20288;-83
2023/03/28 06:33:28;;;;;;;1.65;1.35;;;3.30;99.90;;;;;;5113287;28;20299;-84
2023/03/28 06:35:58;;;;;;;1.45;0.93;;;3.30;99.90;;;;;;5095747;28;20253;-84
2023/03/28 06:38:26;;;;;;;1.70;1.60;;;3.30;99.90;;;;;;5094420;28;20216;-84
2023/03/28 06:40:55;;;;;;;1.10;1.02;;;3.20;99.90;;;;;;5099341;28;20224;-84
2023/03/28 06:43:26;;;;;;;1.17;1.08;;;3.30;99.90;;;;;;5094686;28;20215;-84
2023/03/28 06:45:54;;;;;;;0.80;0.80;;;3.30;99.90;;;;;;5094399;28;20230;-85
2023/03/28 06:48:28;;;;;;;1.48;0.63;;;3.40;99.90;;;;;;5095881;28;20259;-84
2023/03/28 06:51:00;;;;;;;2.88;0.88;;;3.50;99.90;;;;;;5114322;28;20280;-84
2023/03/28 06:53:29;;;;;;;0.80;0.80;;;3.70;99.90;;;;;;5114432;28;20227;-84
2023/03/28 06:56:00;;;;;;;1.27;1.17;;;3.70;99.90;;;;;;5114268;28;20204;-84
2023/03/28 06:58:28;;;;;;;1.13;1.02;;;3.80;99.90;;;;;;5113834;28;20265;-84
2023/03/28 07:00:59;;;;;;;1.35;1.25;;;3.80;99.90;;;;;;5114616;28;20248;-84
2023/03/28 07:03:28;;;;;;;1.00;0.98;;;3.90;99.90;;;;;;5114737;28;20272;-83
2023/03/28 07:06:03;;;;;;;1.63;1.40;;;4.10;99.90;;;;;;5114431;28;20199;-84
2023/03/28 07:08:31;;;;;;;1.52;1.17;;;4.10;99.90;;;;;;5113971;28;20267;-84
2023/03/28 07:11:00;;;;;;;1.48;1.38;;;4.20;99.90;;;;;;5114249;28;20228;-84
2023/03/28 07:13:31;;;;;;;1.35;1.25;;;4.30;99.90;;;;;;5113840;28;20319;-84
2023/03/28 07:16:01;;;;;;;1.38;1.27;;;4.40;99.90;;;;;;5114380;28;20231;-84
2023/03/28 07:18:29;;;;;;;1.27;1.10;;;4.40;99.90;;;;;;5113677;28;20203;-84
2023/03/28 07:20:59;;;;;;;1.08;1.08;;;4.50;99.90;;;;;;5113858;28;20284;-84
2023/03/28 07:23:35;;;;;;;0.98;0.98;;;4.40;99.90;;;;;;5113545;28;20295;-84
2023/03/28 07:26:04;;;;;;;1.67;1.58;;;4.20;99.90;;;;;;5114316;28;20227;-84
2023/03/28 07:28:33;;;;;;;1.58;1.48;;;4.10;99.90;;;;;;5113204;28;20233;-84
2023/03/28 07:31:03;;;;;;;1.45;1.35;;;4.10;99.90;;;;;;5113652;28;20265;-84
2023/03/28 07:33:32;;;;;;;1.67;1.58;;;4.10;99.90;;;;;;5113391;28;20211;-84
2023/03/28 07:36:11;;;;;;;3.17;1.90;;;4.20;99.90;;;;;;5113294;28;20218;-84
2023/03/28 07:38:42;;;;;;;3.00;1.80;;;4.40;99.90;;;;;;5093282;28;20295;-84
2023/03/28 07:41:13;;;;;;;3.08;1.70;;;4.60;99.90;;;;;;5093117;28;20224;-84
2023/03/28 07:43:41;;;;;;;1.77;1.67;;;4.70;99.90;;;;;;5093433;28;20264;-85
2023/03/28 07:46:12;;;;;;;1.50;1.40;;;4.70;99.90;;;;;;5093395;28;20265;-85
2023/03/28 07:48:41;;;;;;;1.75;1.30;;;4.70;99.90;;;;;;5103694;28;20221;-85
2023/03/28 07:51:11;;;;;;;1.48;1.38;;;4.70;99.90;;;;;;5113309;28;20271;-84
2023/03/28 07:53:40;;;;;;;1.58;1.48;;;4.80;99.90;;;;;;5113048;28;20238;-84
2023/03/28 07:56:10;;;;;;;1.55;1.25;;;4.80;99.90;;;;;;5113305;28;20256;-84
2023/03/28 07:58:40;;;;;;;1.38;1.30;;;4.80;99.90;;;;;;5112475;28;20294;-85
2023/03/28 08:01:10;;;;;;;2.65;1.63;;;5.00;99.90;;;;;;5112019;28;20259;-83
2023/03/28 08:03:39;;;;;;;0.90;0.90;;;4.60;99.90;;;;;;5110311;28;20194;-84
2023/03/28 08:06:12;;;;;;;1.00;0.95;;;4.40;99.90;;;;;;5113063;28;20204;-84
2023/03/28 08:09:00;;;;;;;1.17;1.08;;;4.10;99.90;;;;;;5113320;28;20228;-84
2023/03/28 08:11:28;;;;;;;1.30;1.20;;;3.90;99.90;;;;;;5101376;28;20220;-85
2023/03/28 08:13:57;;;;;;;1.33;1.23;;;3.90;99.90;;;;;;5111785;28;20227;-83
2023/03/28 08:16:25;;;;;;;1.10;1.05;;;3.90;99.90;;;;;;5106212;27;20208;-83
2023/03/28 08:18:53;;;;;;;1.20;1.10;;;3.90;99.90;;;;;;5110468;28;20216;-83
2023/03/28 08:21:41;;;;;;;1.15;1.15;;;3.90;99.90;;;;;;5112726;28;20234;-81
2023/03/28 08:24:11;;;;;;;1.55;1.45;;;3.80;99.90;;;;;;5113157;28;20199;-82
2023/03/28 08:26:52;;;;;;;1.17;1.02;;;3.80;99.90;;;;;;5112673;28;20196;-83
2023/03/28 08:29:22;;;;;;;1.40;1.40;;;3.90;99.90;;;;;;5112347;28;20247;-83
2023/03/28 08:31:50;;;;;;;1.88;1.52;;;3.90;99.90;;;;;;5092122;28;20220;-84
2023/03/28 08:34:19;;;;;;;4.03;1.55;;;3.90;99.90;;;;;;5091320;28;20309;-83
2023/03/28 08:36:47;;;;;;;1.50;1.38;;;4.00;99.90;;;;;;5111695;28;20210;-83
2023/03/28 08:39:18;;;;;;;1.95;1.75;;;4.10;99.90;;;;;;5113014;28;20212;-83
2023/03/28 08:42:04;;;;;;;1.85;1.75;;;4.00;99.90;;;;;;5112573;28;20348;-83
2023/03/28 08:44:50;;;;;;;2.05;1.88;;;4.00;99.90;;;;;;5112739;28;20228;-84
2023/03/28 08:47:22;;;;;;;1.25;1.15;;;4.30;99.90;;;;;;5111298;28;20297;-82
2023/03/28 08:49:56;;;;;;;2.17;1.10;;;4.80;99.90;;;;;;5101839;28;20200;-83
2023/03/28 08:52:25;;;;;;;1.10;0.80;;;5.00;99.90;;;;;;5112500;28;20199;-83
2023/03/28 08:55:00;;;;;;;1.10;1.00;;;5.20;99.90;;;;;;5111771;28;20204;-83
2023/03/28 08:57:32;;;;;;;2.00;1.15;;;5.50;99.90;;;;;;5094609;28;20208;-84
2023/03/28 09:00:10;;;;;;;26.77;1.52;;;6.10;99.90;;;;;;5110856;28;20209;-82
2023/03/28 09:02:40;;;;;;;2.35;1.48;;;6.10;99.90;;;;;;5103357;28;20193;-82
2023/03/28 09:05:14;;;;;;;2.25;1.52;;;5.90;99.90;;;;;;5099174;28;20212;-83
2023/03/28 09:07:55;;;;;;;3.15;0.98;;;5.70;99.90;;;;;;5104190;28;20204;-83
2023/03/28 09:10:29;;;;;;;2.28;1.80;;;5.40;99.90;;;;;;5111320;28;20227;-83
2023/03/28 09:13:10;;;;;;;1.63;1.30;;;5.30;99.90;;;;;;5109335;28;20223;-83
2023/03/28 09:15:51;;;;;;;1.30;1.20;;;5.20;99.90;;;;;;5112797;28;20210;-83
2023/03/28 09:18:41;;;;;;;4.18;1.23;;;5.10;99.90;;;;;;5111762;28;20210;-83
2023/03/28 09:21:52;;;;;;;2.40;1.83;;;5.10;99.90;;;;;;5092140;28;20258;-82
2023/03/28 09:24:59;;;;;;;1.42;1.20;;;5.10;99.90;;;;;;5094765;28;20197;-82
2023/03/28 09:27:33;;;;;;;0.95;0.88;;;4.90;99.90;;;;;;5089962;28;20246;-82
2023/03/28 09:30:13;;;;;;;0.90;0.90;;;4.90;99.90;;;;;;5110389;28;20211;-82
2023/03/28 09:32:42;;;;;;;1.60;1.50;;;5.20;99.90;;;;;;5111007;28;20204;-82
2023/03/28 09:35:16;;;;;;;2.42;2.05;;;6.00;99.90;;;;;;5112291;28;20211;-82
2023/03/28 09:37:48;;;;;;;2.60;2.40;;;6.70;99.90;;;;;;5111585;28;20250;-82
2023/03/28 09:40:21;;;;;;;1.70;1.60;;;6.70;99.90;;;;;;5112531;28;20273;-82
2023/03/28 09:43:00;;;;;;;3.47;2.50;;;7.40;99.90;;;;;;5112266;28;20211;-82
2023/03/28 09:45:40;;;;;;;1.00;1.00;;;8.00;98.80;;;;;;5096492;28;20223;-82
2023/03/28 09:48:14;;;;;;;1.75;1.20;;;8.00;99.90;;;;;;5112960;28;20206;-82
2023/03/28 09:50:45;;;;;;;0.70;0.70;;;7.30;99.90;;;;;;5110891;28;20227;-82
2023/03/28 09:53:22;;;;;;;1.38;1.02;;;6.60;99.90;;;;;;5115680;28;20224;-82
2023/03/28 09:55:51;;;;;;;1.30;1.05;;;6.00;99.90;;;;;;5105535;28;20196;-82
2023/03/28 09:58:48;;;;;;;1.00;1.00;;;6.00;99.90;;;;;;5104677;28;20231;-82
2023/03/28 10:01:32;;;;;;;2.45;1.30;;;5.90;99.90;;;;;;5114925;28;20223;-82
2023/03/28 10:04:00;;;;;;;2.60;1.35;;;5.90;99.90;;;;;;5115329;28;20336;-82
2023/03/28 10:06:30;;;;;;;0.90;0.90;;;5.90;99.90;;;;;;5114685;28;20265;-82
2023/03/28 10:09:17;;;;;;;1.38;1.27;;;5.80;99.90;;;;;;5114503;28;20314;-83
2023/03/28 10:11:53;;;;;;;1.65;1.30;;;6.00;99.90;;;;;;5115065;28;20226;-85
2023/03/28 10:14:42;;;;;;;1.25;1.15;;;5.70;99.90;;;;;;5114766;28;20242;-85
2023/03/28 10:17:14;;;;;;;1.10;1.10;;;5.60;99.90;;;;;;5103888;28;20233;-85
2023/03/28 10:19:45;;;;;;;0.77;0.77;;;6.00;99.90;;;;;;5114721;28;20241;-84
2023/03/28 10:22:20;;;;;;;1.88;1.10;;;5.70;99.90;;;;;;5114966;28;20239;-83
2023/03/28 10:24:49;;;;;;;0.70;0.70;;;5.30;99.90;;;;;;5114855;28;20238;-82
2023/03/28 10:27:23;;;;;;;0.93;0.80;;;5.20;99.90;;;;;;5114150;28;20323;-82
2023/03/28 10:29:56;;;;;;;13.88;1.30;;;4.90;97.90;;;;;;5114994;28;20295;-82
2023/03/28 10:32:26;;;;;;;0.50;0.50;;;4.80;98.80;;;;;;5115088;28;20205;-82
2023/03/28 10:35:03;;;;;;;2.03;1.00;;;5.40;99.00;;;;;;5114644;28;20222;-82
2023/03/28 10:37:33;;;;;;;1.05;0.95;;;6.30;98.50;;;;;;5114609;28;20299;-82
2023/03/28 10:40:05;;;;;;;1.17;1.08;;;6.90;97.60;;;;;;5114538;28;20207;-82
2023/03/28 10:42:41;;;;;;;0.95;0.88;;;7.40;97.90;;;;;;5115226;28;20257;-82
2023/03/28 10:45:23;;;;;;;1.25;1.15;;;8.20;97.80;;;;;;5114705;28;20234;-82
2023/03/28 10:47:56;;;;;;;1.50;1.40;;;8.60;95.00;;;;;;5114174;28;20204;-82
2023/03/28 10:50:29;;;;;;;2.00;1.20;;;9.10;94.10;;;;;;5114888;28;20259;-83
2023/03/28 10:53:13;;;;;;;3.65;1.55;;;9.10;93.40;;;;;;5114896;28;20299;-82
2023/03/28 10:55:53;;;;;;;2.65;1.38;;;9.10;93.10;;;;;;5105840;28;20216;-83
2023/03/28 10:58:31;;;;;;;1.25;1.15;;;9.20;93.50;;;;;;5093455;28;20212;-83
2023/03/28 11:01:08;;;;;;;1.17;1.15;;;9.60;93.00;;;;;;5093742;28;20254;-83
2023/03/28 11:03:50;;;;;;;5.57;1.60;;;9.40;92.70;;;;;;5107045;28;20199;-82
2023/03/28 11:06:22;;;;;;;1.83;1.10;;;9.00;92.30;;;;;;5114504;28;20211;-82
2023/03/28 11:09:02;;;;;;;1.42;1.33;;;8.20;92.50;;;;;;5114038;28;20243;-82
2023/03/28 11:11:43;;;;;;;1.10;1.00;;;7.70;93.70;;;;;;5114203;28;20235;-82
2023/03/28 11:14:24;;;;;;;1.10;1.10;;;7.70;95.30;;;;;;5114085;28;20223;-82
2023/03/28 11:16:59;;;;;;;1.35;1.10;;;8.10;95.80;;;;;;5114049;28;20253;-82
2023/03/28 11:19:43;;;;;;;0.60;0.60;;;8.60;96.30;;;;;;5114441;28;20232;-82
2023/03/28 11:22:21;;;;;;;1.13;1.08;;;8.70;95.40;;;;;;5113904;28;20239;-82
2023/03/28 11:25:02;;;;;;;0.73;0.73;;;8.20;97.70;;;;;;5113856;28;20204;-82
2023/03/28 11:27:39;;;;;;;1.35;1.25;;;7.80;98.30;;;;;;5113745;28;20202;-82
2023/03/28 11:30:14;;;;;;;1.35;1.08;;;7.40;97.00;;;;;;5113951;28;20263;-82
2023/03/28 11:32:50;;;;;;;1.00;1.00;;;7.00;98.30;;;;;;5113890;28;20196;-82
2023/03/28 11:35:26;;;;;;;0.85;0.85;;;6.80;99.90;;;;;;5113404;28;20223;-82
2023/03/28 11:38:01;;;;;;;1.42;1.20;;;7.00;99.90;;;;;;5113525;28;20199;-82
2023/03/28 11:40:35;;;;;;;1.55;1.13;;;7.10;99.90;;;;;;5113556;28;20230;-82
2023/03/28 11:43:05;;;;;;;3.08;1.45;;;6.80;99.90;;;;;;5113770;28;20203;-82
2023/03/28 11:45:38;;;;;;;0.90;0.90;;;5.90;99.90;;;;;;5113518;28;20210;-82
2023/03/28 11:48:25;;;;;;;1.17;1.08;;;5.40;99.90;;;;;;5112912;28;20207;-82
2023/03/28 11:51:01;;;;;;;1.25;1.15;;;5.10;99.90;;;;;;5113375;28;20302;-82
2023/03/28 11:53:34;;;;;;;4.03;1.70;;;4.80;99.90;;;;;;5113381;28;20223;-82
2023/03/28 11:56:09;;;;;;;1.30;1.20;;;4.70;99.90;;;;;;5112870;28;20299;-81
2023/03/28 11:58:42;;;;;;;1.75;1.23;;;4.50;99.90;;;;;;5112901;28;20199;-82
2023/03/28 12:01:14;;;;;;;2.22;1.63;;;4.70;99.90;;;;;;5113624;28;20258;-82
2023/03/28 12:03:55;;;;;;;1.25;0.95;;;5.40;99.90;;;;;;5099345;28;20204;-82
2023/03/28 12:06:30;;;;;;;1.88;1.60;;;6.50;99.90;;;;;;5092963;28;20280;-82
2023/03/28 12:09:05;;;;;;;1.50;1.40;;;7.40;99.90;;;;;;5091897;28;20294;-82
2023/03/28 12:11:39;;;;;;;1.02;1.00;;;7.70;99.90;;;;;;5092769;28;20315;-82
2023/03/28 12:14:28;;;;;;;3.70;1.40;;;7.60;99.90;;;;;;5092824;28;20287;-82
2023/03/28 12:16:58;;;;;;;1.42;1.30;;;7.70;99.90;;;;;;5092178;28;20291;-82
2023/03/28 12:19:33;;;;;;;2.10;1.45;;;7.40;99.90;;;;;;5092969;28;20201;-81
2023/03/28 12:22:08;;;;;;;1.73;1.48;;;7.10;99.90;;;;;;5092946;28;20224;-82
2023/03/28 12:24:43;;;;;;;1.45;1.27;;;7.30;99.90;;;;;;5092814;28;20242;-82
2023/03/28 12:27:18;;;;;;;1.30;1.10;;;7.70;99.90;;;;;;5092286;28;20294;-82
2023/03/28 12:29:52;;;;;;;2.25;1.65;;;7.90;99.90;;;;;;5092321;28;20219;-82
2023/03/28 12:32:33;;;;;;;1.35;1.25;;;7.80;98.50;;;;;;5092600;28;20208;-82
2023/03/28 12:35:12;;;;;;;1.05;1.00;;;7.60;99.90;;;;;;5092272;28;20269;-82
2023/03/28 12:37:48;;;;;;;2.92;1.33;;;7.30;98.90;;;;;;5091979;28;20272;-81
2023/03/28 12:40:24;;;;;;;0.80;0.80;;;7.40;97.40;;;;;;5092475;28;20242;-82
2023/03/28 12:42:54;;;;;;;1.05;1.02;;;7.90;95.70;;;;;;5092657;28;20231;-82
2023/03/28 12:45:38;;;;;;;1.75;1.30;;;8.30;93.70;;;;;;5092339;28;20236;-82
2023/03/28 12:48:11;;;;;;;0.77;0.77;;;8.20;94.20;;;;;;5091700;28;20294;-81
2023/03/28 12:50:47;;;;;;;2.80;1.27;;;7.70;95.40;;;;;;5092510;28;20283;-81
2023/03/28 12:53:16;;;;;;;0.85;0.85;;;7.10;98.60;;;;;;5092573;28;20211;-82
2023/03/28 12:55:47;;;;;;;1.30;1.20;;;6.70;99.90;;;;;;5092489;28;20216;-81
2023/03/28 12:58:24;;;;;;;6.30;1.77;;;6.40;99.90;;;;;;5091729;28;20212;-81
2023/03/28 13:01:18;;;;;;;1.00;1.00;;;6.30;99.10;;;;;;5092047;28;20242;-81
2023/03/28 13:03:57;;;;;;;1.73;1.08;;;6.40;98.50;;;;;;5106582;28;20195;-81
2023/03/28 13:06:36;;;;;;;0.80;0.80;;;6.40;97.00;;;;;;5112614;28;20203;-81
2023/03/28 13:09:36;;;;;;;0.77;0.77;;;6.40;94.80;;;;;;5112058;28;20217;-81
2023/03/28 13:12:19;;;;;;;0.70;0.70;;;6.40;94.20;;;;;;5112647;28;20218;-81
2023/03/28 13:14:59;;;;;;;1.17;0.98;;;6.40;94.80;;;;;;5112552;28;20211;-81
2023/03/28 13:17:30;;;;;;;0.80;0.77;;;6.50;93.60;;;;;;5111690;28;20211;-81
2023/03/28 13:20:09;;;;;;;1.48;1.08;;;6.50;93.20;;;;;;5113588;28;20212;-81
2023/03/28 13:22:43;;;;;;;0.80;0.80;;;7.10;91.30;;;;;;5117168;28;20234;-81
2023/03/28 13:25:28;;;;;;;0.43;0.43;;;7.70;90.70;;;;;;5117000;28;20274;-81
2023/03/28 13:27:59;;;;;;;0.95;0.90;;;7.70;87.70;;;;;;5115796;28;20211;-81
2023/03/28 13:30:29;;;;;;;1.25;1.15;;;7.60;86.60;;;;;;5116060;28;20235;-81
2023/03/28 13:33:00;;;;;;;0.85;0.85;;;7.50;85.50;;;;;;5116077;28;20242;-81